Karpathos, Greece

9:37 PM EEST on April 19, 2015 (GMT +0300)
Karpathos | | Change Station
CLOSE
Current Station
Airport
Location: Karpathos,
Elevation: 66 ft
Nearby Weather Stations

Elev 66 ft 35.42 °N, 27.15 °E | Updated 17 minutes ago

Light Rain
Light Rain
61 °F
Feels Like 61 °F
N
9
Wind Variable Wind from ENE

Today
High -- | Low -- °F
--% Chance of Precip.
Yesterday
High -- | Low -- °F
Precip. -- in
6:34 AM 7:47 PM
New Moon, 1% visible
Pressure 29.89 in
Visibility -9999.0 miles
Clouds
Dew Point 50 °F
Humidity 68%
Rainfall 0.00 in
Snow Depth Not available.
UV Not available.
Pollen Not available.
Air Quality Not available.
Flu Activity Not available.
METAR LGKP 191820Z AUTO 07008KT 010V080 //// -RA ////// 16/10 Q1012 RE//

More Conditions Fewer Conditions

Pressure 29.89 in
Visibility -9999.0 miles
Clouds
Dew Point 50 °F
Humidity 68%
Rainfall 0.00 in
Snow Depth Not available.
UV Not available.
Pollen Not available.
Air Quality Not available.
Flu Activity Not available.
METAR LGKP 191820Z AUTO 07008KT 010V080 //// -RA ////// 16/10 Q1012 RE//

More Conditions Fewer Conditions

10-Day Weather Forecast

Almanac

Astronomy

Apr. 19, 2015 Rise Set
Actual Time
Civil Twilight
Nautical Twilight
Astronomical Twilight
Moon
Length of Visible Light
Length of Day
Tomorrow will be .
, % of the Moon is Illuminated

Today's Extremes

Country Highs Country Lows

Community

WunderPhotos

Upload Photos

1,814,900 photos uploaded!

WunderBlogs® & News

Nearby

Air Quality

  Air Quality AQ Index Pollutant
Not available.

Snow Depth

Station Depth Elevation

Earthquake Activity

City Distance Mag. Time & Date
Minimum magnitude displayed is 2.5.

Coastal Water Temperatures

Place Temperature

Stations

Nearby Weather Stations

Station Location Temp. Windchill Dew Point Humidity Wind Precip. Elev Updated Type